Vance Air Force Base
KEND : now visible

Airfield :











YOU CAN JOIN US ON...

 
LOGIN :

Register | Disclaimer

   EN    FR    IT 

 









Legend :    VFR   Marginal VFR   IFR   Intensive IFR   Very Intensive IFR
Visi :
Ceiling :
>= 8 km
>= 3000ft
5 to 8 km
1000 to 3000 ft
1500m to 5 km
500 to 1000 ft
800 to 1500m
200 to 500 ft
< 800m
< 200 ft
Symbols :   Thunderstorms  Fog  Heavy snow  Heavy precipitations  Wind > 20 kt






- Airport Elevation : 1307 ft


KEND - Vance Air Force Base

CURRENT METAR :
  • 142156Z AUTO 09011KT 10SM CLR 33/24 A2987 RMK AO2 SLP101 T03320238 CHINO RWY35C $

EXPIRED METARs :
  • 142056Z AUTO 11007KT 10SM CLR 33/24 A2988 RMK AO2 SLP105 T03290238 57013 CHINO RWY35C $
  • 141956Z AUTO 13009KT 10SM FEW190 32/24 A2990 RMK AO2 SLP111 T03240236 CHINO RWY35C $

TAF TAF KEND
Valid from the 14 at 18:00 until the 16 at 00:00 UTC


141800Z 1418/1600 12013KT 9999 FEW030 FEW250 QNH2983INS
BECMG 1421/1422 10014KT 9999 FEW050 FEW250 QNH2983INS
BECMG 1504/1505 07005KT 9999 FEW070 QNH2991INS
BECMG 1511/1512 09012KT 9999 SKC QNH2993INS TX35/1423Z TN22/1512Z
KZKC FIR / North America



MET'MAP, your aeronautical weather chart ! - Copyright ORBIFLY December 2007 - Disclaimer

ORBIFLY MET'MAP TEAM :

Programming & Development : Alexandra Zaïnal
Concept & original design : Baudouin d'Aumeries
Assistance for programming : Marc-Olivier Méhu
Technical & hardware support : Manuel Goepfert

Contact : metmap@orbifly.com




SOURCES & CREDITS :

   NOAA       Earth
Advisory